sensor_id;sensor_type;location;lat;lon;timestamp;P1;durP1;ratioP1;P2;durP2;ratioP2
37001;SDS011;22913;51.910;8.374;2023-06-14T00:02:17;2.97;;;2.33;;
37001;SDS011;22913;51.910;8.374;2023-06-14T00:05:03;3.13;;;2.47;;
37001;SDS011;22913;51.910;8.374;2023-06-14T00:07:49;4.43;;;2.47;;
37001;SDS011;22913;51.910;8.374;2023-06-14T00:10:36;3.07;;;2.40;;
37001;SDS011;22913;51.910;8.374;2023-06-14T00:13:24;2.60;;;2.30;;
37001;SDS011;22913;51.910;8.374;2023-06-14T00:16:12;3.07;;;2.20;;
37001;SDS011;22913;51.910;8.374;2023-06-14T00:18:57;5.87;;;2.37;;
37001;SDS011;22913;51.910;8.374;2023-06-14T00:21:43;3.33;;;2.40;;
37001;SDS011;22913;51.910;8.374;2023-06-14T00:24:29;4.67;;;2.47;;
37001;SDS011;22913;51.910;8.374;2023-06-14T00:27:15;5.37;;;2.70;;
37001;SDS011;22913;51.910;8.374;2023-06-14T00:30:01;6.43;;;2.77;;
37001;SDS011;22913;51.910;8.374;2023-06-14T00:32:48;5.03;;;2.30;;
37001;SDS011;22913;51.910;8.374;2023-06-14T00:35:33;6.10;;;2.10;;
37001;SDS011;22913;51.910;8.374;2023-06-14T00:38:19;2.70;;;2.30;;
37001;SDS011;22913;51.910;8.374;2023-06-14T00:41:05;2.80;;;2.60;;
37001;SDS011;22913;51.910;8.374;2023-06-14T00:43:50;5.63;;;2.47;;
37001;SDS011;22913;51.910;8.374;2023-06-14T00:46:37;4.67;;;2.93;;
37001;SDS011;22913;51.910;8.374;2023-06-14T00:49:24;4.77;;;2.37;;
37001;SDS011;22913;51.910;8.374;2023-06-14T00:52:09;2.50;;;2.40;;
37001;SDS011;22913;51.910;8.374;2023-06-14T00:54:56;4.37;;;2.60;;
37001;SDS011;22913;51.910;8.374;2023-06-14T00:57:41;4.30;;;2.50;;
37001;SDS011;22913;51.910;8.374;2023-06-14T01:00:27;2.33;;;2.13;;
37001;SDS011;22913;51.910;8.374;2023-06-14T01:03:13;6.43;;;2.60;;
37001;SDS011;22913;51.910;8.374;2023-06-14T01:06:09;5.00;;;2.70;;
37001;SDS011;22913;51.910;8.374;2023-06-14T01:09:12;3.17;;;2.43;;
37001;SDS011;22913;51.910;8.374;2023-06-14T01:12:04;2.67;;;2.47;;
37001;SDS011;22913;51.910;8.374;2023-06-14T01:14:55;5.40;;;2.50;;
37001;SDS011;22913;51.910;8.374;2023-06-14T01:17:44;5.90;;;2.30;;
37001;SDS011;22913;51.910;8.374;2023-06-14T01:20:31;2.77;;;2.47;;
37001;SDS011;22913;51.910;8.374;2023-06-14T01:23:21;4.20;;;2.50;;
37001;SDS011;22913;51.910;8.374;2023-06-14T01:26:08;5.37;;;2.57;;
37001;SDS011;22913;51.910;8.374;2023-06-14T01:28:54;3.67;;;2.30;;
37001;SDS011;22913;51.910;8.374;2023-06-14T01:31:42;2.67;;;2.30;;
37001;SDS011;22913;51.910;8.374;2023-06-14T01:34:29;4.10;;;2.13;;
37001;SDS011;22913;51.910;8.374;2023-06-14T01:37:15;4.03;;;2.30;;
37001;SDS011;22913;51.910;8.374;2023-06-14T01:40:03;5.83;;;2.60;;
37001;SDS011;22913;51.910;8.374;2023-06-14T01:42:50;2.57;;;2.37;;
37001;SDS011;22913;51.910;8.374;2023-06-14T01:45:36;3.77;;;2.47;;
37001;SDS011;22913;51.910;8.374;2023-06-14T01:48:23;2.77;;;2.57;;
37001;SDS011;22913;51.910;8.374;2023-06-14T01:51:09;3.23;;;2.93;;
37001;SDS011;22913;51.910;8.374;2023-06-14T01:53:55;2.80;;;2.60;;
37001;SDS011;22913;51.910;8.374;2023-06-14T01:56:43;5.93;;;2.57;;
37001;SDS011;22913;51.910;8.374;2023-06-14T01:59:28;4.17;;;2.50;;
37001;SDS011;22913;51.910;8.374;2023-06-14T02:02:14;2.80;;;2.60;;
37001;SDS011;22913;51.910;8.374;2023-06-14T02:05:00;2.67;;;2.43;;
37001;SDS011;22913;51.910;8.374;2023-06-14T02:07:46;3.97;;;2.47;;
37001;SDS011;22913;51.910;8.374;2023-06-14T02:10:31;2.67;;;2.40;;
37001;SDS011;22913;51.910;8.374;2023-06-14T02:13:18;3.13;;;2.50;;
37001;SDS011;22913;51.910;8.374;2023-06-14T02:16:03;4.67;;;2.30;;
37001;SDS011;22913;51.910;8.374;2023-06-14T02:18:49;4.93;;;2.63;;
37001;SDS011;22913;51.910;8.374;2023-06-14T02:21:35;3.20;;;2.57;;
37001;SDS011;22913;51.910;8.374;2023-06-14T02:24:21;2.20;;;2.10;;
37001;SDS011;22913;51.910;8.374;2023-06-14T02:27:07;2.60;;;2.27;;
37001;SDS011;22913;51.910;8.374;2023-06-14T02:29:55;2.40;;;2.20;;
37001;SDS011;22913;51.910;8.374;2023-06-14T02:32:40;3.23;;;2.40;;
37001;SDS011;22913;51.910;8.374;2023-06-14T02:35:26;3.17;;;2.43;;
37001;SDS011;22913;51.910;8.374;2023-06-14T02:38:12;2.57;;;2.37;;
37001;SDS011;22913;51.910;8.374;2023-06-14T02:40:58;3.37;;;2.30;;
37001;SDS011;22913;51.910;8.374;2023-06-14T02:43:45;4.77;;;2.37;;
37001;SDS011;22913;51.910;8.374;2023-06-14T02:46:32;3.90;;;2.40;;
37001;SDS011;22913;51.910;8.374;2023-06-14T02:49:18;2.50;;;2.30;;
37001;SDS011;22913;51.910;8.374;2023-06-14T02:52:04;2.57;;;2.30;;
37001;SDS011;22913;51.910;8.374;2023-06-14T02:54:50;2.90;;;2.23;;
37001;SDS011;22913;51.910;8.374;2023-06-14T02:57:36;5.43;;;2.20;;
37001;SDS011;22913;51.910;8.374;2023-06-14T03:00:21;4.97;;;2.43;;
37001;SDS011;22913;51.910;8.374;2023-06-14T03:03:09;4.27;;;2.13;;
37001;SDS011;22913;51.910;8.374;2023-06-14T03:05:58;2.83;;;2.20;;
37001;SDS011;22913;51.910;8.374;2023-06-14T03:08:48;2.53;;;2.33;;
37001;SDS011;22913;51.910;8.374;2023-06-14T03:11:34;5.13;;;2.60;;
37001;SDS011;22913;51.910;8.374;2023-06-14T03:14:20;3.30;;;2.57;;
37001;SDS011;22913;51.910;8.374;2023-06-14T03:17:05;2.53;;;2.33;;
37001;SDS011;22913;51.910;8.374;2023-06-14T03:19:53;4.87;;;2.50;;
37001;SDS011;22913;51.910;8.374;2023-06-14T03:22:38;3.53;;;2.30;;
37001;SDS011;22913;51.910;8.374;2023-06-14T03:25:24;6.10;;;2.60;;
37001;SDS011;22913;51.910;8.374;2023-06-14T03:28:13;2.57;;;2.33;;
37001;SDS011;22913;51.910;8.374;2023-06-14T03:30:59;3.60;;;2.30;;
37001;SDS011;22913;51.910;8.374;2023-06-14T03:33:44;2.70;;;2.23;;
37001;SDS011;22913;51.910;8.374;2023-06-14T03:36:31;3.37;;;2.23;;
37001;SDS011;22913;51.910;8.374;2023-06-14T03:39:17;2.63;;;2.43;;
37001;SDS011;22913;51.910;8.374;2023-06-14T03:42:06;2.50;;;2.30;;
37001;SDS011;22913;51.910;8.374;2023-06-14T03:44:53;2.63;;;2.40;;
37001;SDS011;22913;51.910;8.374;2023-06-14T03:47:38;3.60;;;2.07;;
37001;SDS011;22913;51.910;8.374;2023-06-14T03:50:24;2.50;;;2.30;;
37001;SDS011;22913;51.910;8.374;2023-06-14T03:53:12;3.50;;;2.63;;
37001;SDS011;22913;51.910;8.374;2023-06-14T03:55:58;8.87;;;2.70;;
37001;SDS011;22913;51.910;8.374;2023-06-14T03:58:44;2.27;;;2.07;;
37001;SDS011;22913;51.910;8.374;2023-06-14T04:01:30;3.70;;;2.37;;
37001;SDS011;22913;51.910;8.374;2023-06-14T04:04:17;2.67;;;2.20;;
37001;SDS011;22913;51.910;8.374;2023-06-14T04:07:04;2.50;;;2.30;;
37001;SDS011;22913;51.910;8.374;2023-06-14T04:09:54;3.27;;;2.73;;
37001;SDS011;22913;51.910;8.374;2023-06-14T04:12:40;2.87;;;2.10;;
37001;SDS011;22913;51.910;8.374;2023-06-14T04:15:25;2.60;;;2.40;;
37001;SDS011;22913;51.910;8.374;2023-06-14T04:18:12;4.27;;;2.40;;
37001;SDS011;22913;51.910;8.374;2023-06-14T04:20:58;3.40;;;2.10;;
37001;SDS011;22913;51.910;8.374;2023-06-14T04:23:43;2.70;;;2.40;;
37001;SDS011;22913;51.910;8.374;2023-06-14T04:26:30;5.90;;;2.13;;
37001;SDS011;22913;51.910;8.374;2023-06-14T04:29:17;2.30;;;2.10;;
37001;SDS011;22913;51.910;8.374;2023-06-14T04:32:03;3.33;;;2.30;;
37001;SDS011;22913;51.910;8.374;2023-06-14T04:34:50;3.00;;;2.33;;
37001;SDS011;22913;51.910;8.374;2023-06-14T04:37:37;2.10;;;1.90;;
37001;SDS011;22913;51.910;8.374;2023-06-14T04:40:27;3.23;;;1.70;;
37001;SDS011;22913;51.910;8.374;2023-06-14T04:43:14;2.03;;;1.93;;
37001;SDS011;22913;51.910;8.374;2023-06-14T04:46:01;4.20;;;1.90;;
37001;SDS011;22913;51.910;8.374;2023-06-14T04:48:46;2.20;;;1.83;;
37001;SDS011;22913;51.910;8.374;2023-06-14T04:51:34;2.90;;;2.17;;
37001;SDS011;22913;51.910;8.374;2023-06-14T04:54:20;6.50;;;1.83;;
37001;SDS011;22913;51.910;8.374;2023-06-14T04:57:06;1.87;;;1.77;;
37001;SDS011;22913;51.910;8.374;2023-06-14T04:59:54;3.13;;;1.90;;
37001;SDS011;22913;51.910;8.374;2023-06-14T05:02:41;8.03;;;2.23;;
37001;SDS011;22913;51.910;8.374;2023-06-14T05:05:26;2.57;;;2.03;;
37001;SDS011;22913;51.910;8.374;2023-06-14T05:08:12;3.40;;;2.30;;
37001;SDS011;22913;51.910;8.374;2023-06-14T05:10:58;6.80;;;2.40;;
37001;SDS011;22913;51.910;8.374;2023-06-14T05:13:43;2.70;;;2.50;;
37001;SDS011;22913;51.910;8.374;2023-06-14T05:16:31;4.90;;;2.50;;
37001;SDS011;22913;51.910;8.374;2023-06-14T05:19:17;2.67;;;2.47;;
37001;SDS011;22913;51.910;8.374;2023-06-14T05:22:04;6.07;;;2.60;;
37001;SDS011;22913;51.910;8.374;2023-06-14T05:24:50;8.67;;;2.70;;
37001;SDS011;22913;51.910;8.374;2023-06-14T05:27:36;5.03;;;2.50;;
37001;SDS011;22913;51.910;8.374;2023-06-14T05:30:21;3.33;;;2.33;;
37001;SDS011;22913;51.910;8.374;2023-06-14T05:33:08;3.20;;;2.23;;
37001;SDS011;22913;51.910;8.374;2023-06-14T05:35:54;4.30;;;2.10;;
37001;SDS011;22913;51.910;8.374;2023-06-14T05:38:40;3.17;;;2.30;;
37001;SDS011;22913;51.910;8.374;2023-06-14T05:41:25;1.90;;;1.80;;
37001;SDS011;22913;51.910;8.374;2023-06-14T05:44:11;2.20;;;2.00;;
37001;SDS011;22913;51.910;8.374;2023-06-14T05:46:57;3.87;;;1.90;;
37001;SDS011;22913;51.910;8.374;2023-06-14T05:49:44;4.80;;;2.10;;
37001;SDS011;22913;51.910;8.374;2023-06-14T05:52:29;3.50;;;1.80;;
37001;SDS011;22913;51.910;8.374;2023-06-14T05:55:15;2.40;;;2.20;;
37001;SDS011;22913;51.910;8.374;2023-06-14T05:58:01;1.80;;;1.70;;
37001;SDS011;22913;51.910;8.374;2023-06-14T06:00:47;2.20;;;2.07;;
37001;SDS011;22913;51.910;8.374;2023-06-14T06:03:33;4.47;;;2.00;;
37001;SDS011;22913;51.910;8.374;2023-06-14T06:06:20;3.23;;;1.97;;
37001;SDS011;22913;51.910;8.374;2023-06-14T06:09:06;6.20;;;2.13;;
37001;SDS011;22913;51.910;8.374;2023-06-14T06:11:52;2.77;;;2.57;;
37001;SDS011;22913;51.910;8.374;2023-06-14T06:14:37;1.87;;;1.77;;
37001;SDS011;22913;51.910;8.374;2023-06-14T06:17:24;2.53;;;1.70;;
37001;SDS011;22913;51.910;8.374;2023-06-14T06:20:10;1.90;;;1.80;;
37001;SDS011;22913;51.910;8.374;2023-06-14T06:22:58;2.10;;;2.00;;
37001;SDS011;22913;51.910;8.374;2023-06-14T06:25:43;2.07;;;1.73;;
37001;SDS011;22913;51.910;8.374;2023-06-14T06:28:29;2.93;;;1.83;;
37001;SDS011;22913;51.910;8.374;2023-06-14T06:31:15;2.63;;;1.70;;
37001;SDS011;22913;51.910;8.374;2023-06-14T06:34:00;2.00;;;1.90;;
37001;SDS011;22913;51.910;8.374;2023-06-14T06:36:46;4.00;;;2.00;;
37001;SDS011;22913;51.910;8.374;2023-06-14T06:39:33;5.10;;;2.30;;
37001;SDS011;22913;51.910;8.374;2023-06-14T06:42:19;1.70;;;1.60;;
37001;SDS011;22913;51.910;8.374;2023-06-14T06:45:05;1.50;;;1.40;;
37001;SDS011;22913;51.910;8.374;2023-06-14T06:47:52;1.30;;;1.30;;
37001;SDS011;22913;51.910;8.374;2023-06-14T06:50:38;3.57;;;1.50;;
37001;SDS011;22913;51.910;8.374;2023-06-14T06:53:23;1.57;;;1.47;;
37001;SDS011;22913;51.910;8.374;2023-06-14T06:56:11;1.83;;;1.20;;
37001;SDS011;22913;51.910;8.374;2023-06-14T06:58:56;1.10;;;1.10;;
37001;SDS011;22913;51.910;8.374;2023-06-14T07:01:42;1.20;;;1.00;;
37001;SDS011;22913;51.910;8.374;2023-06-14T07:04:28;5.30;;;1.33;;
37001;SDS011;22913;51.910;8.374;2023-06-14T07:07:14;1.30;;;1.20;;
37001;SDS011;22913;51.910;8.374;2023-06-14T07:10:00;1.67;;;1.10;;
37001;SDS011;22913;51.910;8.374;2023-06-14T07:12:50;3.90;;;1.30;;
37001;SDS011;22913;51.910;8.374;2023-06-14T07:15:35;1.70;;;1.17;;
37001;SDS011;22913;51.910;8.374;2023-06-14T07:18:21;1.40;;;1.30;;
37001;SDS011;22913;51.910;8.374;2023-06-14T07:21:07;1.97;;;1.27;;
37001;SDS011;22913;51.910;8.374;2023-06-14T07:23:52;3.87;;;1.30;;
37001;SDS011;22913;51.910;8.374;2023-06-14T07:26:38;1.30;;;1.20;;
37001;SDS011;22913;51.910;8.374;2023-06-14T07:29:25;1.57;;;1.30;;
37001;SDS011;22913;51.910;8.374;2023-06-14T07:32:11;1.17;;;1.17;;
37001;SDS011;22913;51.910;8.374;2023-06-14T07:34:56;1.20;;;1.20;;
37001;SDS011;22913;51.910;8.374;2023-06-14T07:37:42;3.90;;;1.53;;
37001;SDS011;22913;51.910;8.374;2023-06-14T07:40:28;1.50;;;1.40;;
37001;SDS011;22913;51.910;8.374;2023-06-14T07:43:14;1.50;;;1.40;;
37001;SDS011;22913;51.910;8.374;2023-06-14T07:46:00;1.60;;;1.50;;
37001;SDS011;22913;51.910;8.374;2023-06-14T07:48:46;2.23;;;1.57;;
37001;SDS011;22913;51.910;8.374;2023-06-14T07:51:32;3.07;;;1.63;;
37001;SDS011;22913;51.910;8.374;2023-06-14T07:54:18;1.47;;;1.37;;
37001;SDS011;22913;51.910;8.374;2023-06-14T07:57:04;1.20;;;1.20;;
37001;SDS011;22913;51.910;8.374;2023-06-14T07:59:50;1.70;;;1.60;;
37001;SDS011;22913;51.910;8.374;2023-06-14T08:02:37;1.70;;;1.60;;
37001;SDS011;22913;51.910;8.374;2023-06-14T08:05:23;1.57;;;1.40;;
37001;SDS011;22913;51.910;8.374;2023-06-14T08:08:08;1.60;;;1.50;;
37001;SDS011;22913;51.910;8.374;2023-06-14T08:10:54;2.33;;;1.40;;
37001;SDS011;22913;51.910;8.374;2023-06-14T08:13:40;2.30;;;1.63;;
37001;SDS011;22913;51.910;8.374;2023-06-14T08:16:25;1.40;;;1.37;;
37001;SDS011;22913;51.910;8.374;2023-06-14T08:19:13;1.50;;;1.40;;
37001;SDS011;22913;51.910;8.374;2023-06-14T08:21:59;2.70;;;1.20;;
37001;SDS011;22913;51.910;8.374;2023-06-14T08:24:45;1.40;;;1.37;;
37001;SDS011;22913;51.910;8.374;2023-06-14T08:27:31;2.87;;;1.50;;
37001;SDS011;22913;51.910;8.374;2023-06-14T08:30:16;2.33;;;1.43;;
37001;SDS011;22913;51.910;8.374;2023-06-14T08:33:02;1.83;;;1.13;;
37001;SDS011;22913;51.910;8.374;2023-06-14T08:35:49;2.73;;;1.37;;
37001;SDS011;22913;51.910;8.374;2023-06-14T08:38:35;1.93;;;1.50;;
37001;SDS011;22913;51.910;8.374;2023-06-14T08:41:21;1.40;;;1.40;;
37001;SDS011;22913;51.910;8.374;2023-06-14T08:44:08;0.93;;;0.93;;
37001;SDS011;22913;51.910;8.374;2023-06-14T08:46:54;1.80;;;1.10;;
37001;SDS011;22913;51.910;8.374;2023-06-14T08:49:42;2.63;;;1.40;;
37001;SDS011;22913;51.910;8.374;2023-06-14T08:52:33;1.40;;;1.40;;
37001;SDS011;22913;51.910;8.374;2023-06-14T08:55:24;1.30;;;1.20;;
37001;SDS011;22913;51.910;8.374;2023-06-14T08:58:11;2.80;;;1.27;;
37001;SDS011;22913;51.910;8.374;2023-06-14T09:00:58;2.03;;;1.30;;
37001;SDS011;22913;51.910;8.374;2023-06-14T09:03:44;1.10;;;1.10;;
37001;SDS011;22913;51.910;8.374;2023-06-14T09:06:32;1.37;;;1.30;;
37001;SDS011;22913;51.910;8.374;2023-06-14T09:09:18;5.10;;;1.77;;
37001;SDS011;22913;51.910;8.374;2023-06-14T09:12:06;2.97;;;2.07;;
37001;SDS011;22913;51.910;8.374;2023-06-14T09:14:53;1.57;;;1.47;;
37001;SDS011;22913;51.910;8.374;2023-06-14T09:17:39;2.90;;;2.00;;
37001;SDS011;22913;51.910;8.374;2023-06-14T09:20:25;1.70;;;1.60;;
37001;SDS011;22913;51.910;8.374;2023-06-14T09:23:11;1.70;;;1.33;;
37001;SDS011;22913;51.910;8.374;2023-06-14T09:25:58;2.80;;;1.60;;
37001;SDS011;22913;51.910;8.374;2023-06-14T09:28:44;1.73;;;1.63;;
37001;SDS011;22913;51.910;8.374;2023-06-14T09:31:30;2.13;;;1.50;;
37001;SDS011;22913;51.910;8.374;2023-06-14T09:34:16;2.00;;;1.60;;
37001;SDS011;22913;51.910;8.374;2023-06-14T09:37:03;3.33;;;1.70;;
37001;SDS011;22913;51.910;8.374;2023-06-14T09:39:49;1.90;;;1.80;;
37001;SDS011;22913;51.910;8.374;2023-06-14T09:42:37;2.60;;;1.90;;
37001;SDS011;22913;51.910;8.374;2023-06-14T09:45:25;2.40;;;1.80;;
37001;SDS011;22913;51.910;8.374;2023-06-14T09:48:13;1.90;;;1.80;;
37001;SDS011;22913;51.910;8.374;2023-06-14T09:51:01;1.60;;;1.50;;
37001;SDS011;22913;51.910;8.374;2023-06-14T09:53:47;2.63;;;2.23;;
37001;SDS011;22913;51.910;8.374;2023-06-14T09:56:38;3.10;;;2.73;;
37001;SDS011;22913;51.910;8.374;2023-06-14T09:59:30;2.43;;;2.23;;
37001;SDS011;22913;51.910;8.374;2023-06-14T10:02:18;2.07;;;1.97;;
37001;SDS011;22913;51.910;8.374;2023-06-14T10:05:10;1.80;;;1.70;;
37001;SDS011;22913;51.910;8.374;2023-06-14T10:07:59;3.80;;;1.40;;
37001;SDS011;22913;51.910;8.374;2023-06-14T10:10:47;1.80;;;1.70;;
37001;SDS011;22913;51.910;8.374;2023-06-14T10:13:33;2.73;;;1.60;;
37001;SDS011;22913;51.910;8.374;2023-06-14T10:16:22;1.57;;;1.47;;
37001;SDS011;22913;51.910;8.374;2023-06-14T10:19:11;1.70;;;1.60;;
37001;SDS011;22913;51.910;8.374;2023-06-14T10:22:04;1.93;;;1.83;;
37001;SDS011;22913;51.910;8.374;2023-06-14T10:24:54;1.77;;;1.53;;
37001;SDS011;22913;51.910;8.374;2023-06-14T10:27:41;1.90;;;1.80;;
37001;SDS011;22913;51.910;8.374;2023-06-14T10:30:30;2.20;;;1.60;;
37001;SDS011;22913;51.910;8.374;2023-06-14T10:33:17;1.67;;;1.43;;
37001;SDS011;22913;51.910;8.374;2023-06-14T10:36:09;3.33;;;1.80;;
37001;SDS011;22913;51.910;8.374;2023-06-14T10:39:12;2.50;;;2.30;;
37001;SDS011;22913;51.910;8.374;2023-06-14T10:42:01;1.90;;;1.57;;
37001;SDS011;22913;51.910;8.374;2023-06-14T10:44:51;2.00;;;1.60;;
37001;SDS011;22913;51.910;8.374;2023-06-14T10:47:39;1.90;;;1.80;;
37001;SDS011;22913;51.910;8.374;2023-06-14T10:50:28;2.00;;;1.90;;
37001;SDS011;22913;51.910;8.374;2023-06-14T10:53:21;2.00;;;1.83;;
37001;SDS011;22913;51.910;8.374;2023-06-14T10:56:08;1.70;;;1.60;;
37001;SDS011;22913;51.910;8.374;2023-06-14T10:58:55;3.10;;;1.70;;
37001;SDS011;22913;51.910;8.374;2023-06-14T11:01:43;3.23;;;1.80;;
37001;SDS011;22913;51.910;8.374;2023-06-14T11:04:46;1.93;;;1.83;;
37001;SDS011;22913;51.910;8.374;2023-06-14T11:07:37;2.20;;;2.10;;
37001;SDS011;22913;51.910;8.374;2023-06-14T11:10:33;2.17;;;2.07;;
37001;SDS011;22913;51.910;8.374;2023-06-14T11:13:21;2.60;;;2.40;;
37001;SDS011;22913;51.910;8.374;2023-06-14T11:16:10;2.27;;;2.17;;
37001;SDS011;22913;51.910;8.374;2023-06-14T11:18:56;5.80;;;2.03;;
37001;SDS011;22913;51.910;8.374;2023-06-14T11:21:42;1.90;;;1.80;;
37001;SDS011;22913;51.910;8.374;2023-06-14T11:24:33;2.03;;;1.93;;
37001;SDS011;22913;51.910;8.374;2023-06-14T11:27:19;1.70;;;1.60;;
37001;SDS011;22913;51.910;8.374;2023-06-14T11:30:06;1.93;;;1.83;;
37001;SDS011;22913;51.910;8.374;2023-06-14T11:32:54;1.93;;;1.83;;
37001;SDS011;22913;51.910;8.374;2023-06-14T11:35:40;2.43;;;2.30;;
37001;SDS011;22913;51.910;8.374;2023-06-14T11:38:27;2.00;;;1.90;;
37001;SDS011;22913;51.910;8.374;2023-06-14T11:41:14;3.43;;;2.37;;
37001;SDS011;22913;51.910;8.374;2023-06-14T11:44:00;1.70;;;1.60;;
37001;SDS011;22913;51.910;8.374;2023-06-14T11:46:46;1.60;;;1.50;;
37001;SDS011;22913;51.910;8.374;2023-06-14T11:49:34;2.93;;;2.20;;
37001;SDS011;22913;51.910;8.374;2023-06-14T11:52:20;2.40;;;2.20;;
37001;SDS011;22913;51.910;8.374;2023-06-14T11:55:07;3.47;;;2.10;;
37001;SDS011;22913;51.910;8.374;2023-06-14T11:57:56;2.50;;;2.40;;
37001;SDS011;22913;51.910;8.374;2023-06-14T12:00:41;5.17;;;2.00;;
37001;SDS011;22913;51.910;8.374;2023-06-14T12:03:28;2.23;;;1.90;;
37001;SDS011;22913;51.910;8.374;2023-06-14T12:06:13;3.57;;;1.70;;
37001;SDS011;22913;51.910;8.374;2023-06-14T12:08:59;1.67;;;1.57;;
37001;SDS011;22913;51.910;8.374;2023-06-14T12:11:48;2.80;;;1.60;;
37001;SDS011;22913;51.910;8.374;2023-06-14T12:14:35;1.60;;;1.50;;
37001;SDS011;22913;51.910;8.374;2023-06-14T12:17:21;1.80;;;1.70;;
37001;SDS011;22913;51.910;8.374;2023-06-14T12:20:08;2.03;;;1.73;;
37001;SDS011;22913;51.910;8.374;2023-06-14T12:22:58;2.10;;;2.00;;
37001;SDS011;22913;51.910;8.374;2023-06-14T12:25:44;1.90;;;1.77;;
37001;SDS011;22913;51.910;8.374;2023-06-14T12:28:31;2.57;;;2.40;;
37001;SDS011;22913;51.910;8.374;2023-06-14T12:31:18;1.50;;;1.40;;
37001;SDS011;22913;51.910;8.374;2023-06-14T12:34:03;2.03;;;1.80;;
37001;SDS011;22913;51.910;8.374;2023-06-14T12:36:49;1.60;;;1.50;;
37001;SDS011;22913;51.910;8.374;2023-06-14T12:39:35;1.80;;;1.70;;
37001;SDS011;22913;51.910;8.374;2023-06-14T12:42:23;1.70;;;1.60;;
37001;SDS011;22913;51.910;8.374;2023-06-14T12:45:09;2.43;;;1.60;;
37001;SDS011;22913;51.910;8.374;2023-06-14T12:47:56;2.77;;;1.50;;
37001;SDS011;22913;51.910;8.374;2023-06-14T12:50:42;1.80;;;1.43;;
37001;SDS011;22913;51.910;8.374;2023-06-14T12:53:28;1.93;;;1.67;;
37001;SDS011;22913;51.910;8.374;2023-06-14T12:56:14;1.63;;;1.53;;
37001;SDS011;22913;51.910;8.374;2023-06-14T12:59:02;3.37;;;1.93;;
37001;SDS011;22913;51.910;8.374;2023-06-14T13:01:48;1.70;;;1.60;;
37001;SDS011;22913;51.910;8.374;2023-06-14T13:04:36;1.90;;;1.70;;
37001;SDS011;22913;51.910;8.374;2023-06-14T13:07:22;1.63;;;1.60;;
37001;SDS011;22913;51.910;8.374;2023-06-14T13:10:07;4.67;;;1.60;;
37001;SDS011;22913;51.910;8.374;2023-06-14T13:12:53;3.07;;;1.23;;
37001;SDS011;22913;51.910;8.374;2023-06-14T13:15:41;1.70;;;1.60;;
37001;SDS011;22913;51.910;8.374;2023-06-14T13:18:27;2.33;;;1.63;;
37001;SDS011;22913;51.910;8.374;2023-06-14T13:21:15;1.70;;;1.60;;
37001;SDS011;22913;51.910;8.374;2023-06-14T13:24:01;1.60;;;1.50;;
37001;SDS011;22913;51.910;8.374;2023-06-14T13:26:46;2.37;;;1.73;;
37001;SDS011;22913;51.910;8.374;2023-06-14T13:29:32;2.23;;;2.00;;
37001;SDS011;22913;51.910;8.374;2023-06-14T13:32:20;2.17;;;1.60;;
37001;SDS011;22913;51.910;8.374;2023-06-14T13:35:06;1.80;;;1.70;;
37001;SDS011;22913;51.910;8.374;2023-06-14T13:37:53;1.90;;;1.77;;
37001;SDS011;22913;51.910;8.374;2023-06-14T13:40:38;1.93;;;1.83;;
37001;SDS011;22913;51.910;8.374;2023-06-14T13:43:24;1.63;;;1.53;;
37001;SDS011;22913;51.910;8.374;2023-06-14T13:46:10;3.87;;;1.87;;
37001;SDS011;22913;51.910;8.374;2023-06-14T13:48:55;3.45;;;1.90;;
37001;SDS011;22913;51.910;8.374;2023-06-14T13:51:41;1.47;;;1.40;;
37001;SDS011;22913;51.910;8.374;2023-06-14T13:54:29;1.40;;;1.40;;
37001;SDS011;22913;51.910;8.374;2023-06-14T13:57:14;5.13;;;1.57;;
37001;SDS011;22913;51.910;8.374;2023-06-14T14:00:00;6.10;;;1.70;;
37001;SDS011;22913;51.910;8.374;2023-06-14T14:02:47;1.50;;;1.40;;
37001;SDS011;22913;51.910;8.374;2023-06-14T14:05:34;1.50;;;1.40;;
37001;SDS011;22913;51.910;8.374;2023-06-14T14:08:20;2.57;;;1.40;;
37001;SDS011;22913;51.910;8.374;2023-06-14T14:11:07;1.60;;;1.50;;
37001;SDS011;22913;51.910;8.374;2023-06-14T14:13:53;3.10;;;2.13;;
37001;SDS011;22913;51.910;8.374;2023-06-14T14:16:38;1.50;;;1.50;;
37001;SDS011;22913;51.910;8.374;2023-06-14T14:19:24;1.43;;;1.37;;
37001;SDS011;22913;51.910;8.374;2023-06-14T14:22:09;1.77;;;1.67;;
37001;SDS011;22913;51.910;8.374;2023-06-14T14:24:55;1.73;;;1.63;;
37001;SDS011;22913;51.910;8.374;2023-06-14T14:27:43;1.70;;;1.50;;
37001;SDS011;22913;51.910;8.374;2023-06-14T14:30:28;1.27;;;1.27;;
37001;SDS011;22913;51.910;8.374;2023-06-14T14:33:14;1.47;;;1.37;;
37001;SDS011;22913;51.910;8.374;2023-06-14T14:36:01;1.60;;;1.50;;
37001;SDS011;22913;51.910;8.374;2023-06-14T14:38:48;1.80;;;1.60;;
37001;SDS011;22913;51.910;8.374;2023-06-14T14:41:35;1.33;;;1.33;;
37001;SDS011;22913;51.910;8.374;2023-06-14T14:44:22;1.33;;;1.30;;
37001;SDS011;22913;51.910;8.374;2023-06-14T14:47:08;1.70;;;1.60;;
37001;SDS011;22913;51.910;8.374;2023-06-14T14:49:53;2.20;;;1.67;;
37001;SDS011;22913;51.910;8.374;2023-06-14T14:52:40;1.70;;;1.60;;
37001;SDS011;22913;51.910;8.374;2023-06-14T14:55:25;4.03;;;2.00;;
37001;SDS011;22913;51.910;8.374;2023-06-14T14:58:11;1.43;;;1.40;;
37001;SDS011;22913;51.910;8.374;2023-06-14T15:01:02;1.87;;;1.77;;
37001;SDS011;22913;51.910;8.374;2023-06-14T15:03:49;1.60;;;1.50;;
37001;SDS011;22913;51.910;8.374;2023-06-14T15:06:35;1.80;;;1.70;;
37001;SDS011;22913;51.910;8.374;2023-06-14T15:09:20;4.67;;;2.03;;
37001;SDS011;22913;51.910;8.374;2023-06-14T15:12:07;1.70;;;1.60;;
37001;SDS011;22913;51.910;8.374;2023-06-14T15:14:54;1.85;;;1.70;;
37001;SDS011;22913;51.910;8.374;2023-06-14T15:17:41;3.27;;;1.63;;
37001;SDS011;22913;51.910;8.374;2023-06-14T15:20:27;1.75;;;1.50;;
37001;SDS011;22913;51.910;8.374;2023-06-14T15:23:14;1.80;;;1.70;;
37001;SDS011;22913;51.910;8.374;2023-06-14T15:26:03;2.10;;;1.90;;
37001;SDS011;22913;51.910;8.374;2023-06-14T15:28:49;2.87;;;1.83;;
37001;SDS011;22913;51.910;8.374;2023-06-14T15:31:36;2.03;;;1.83;;
37001;SDS011;22913;51.910;8.374;2023-06-14T15:34:23;2.50;;;2.03;;
37001;SDS011;22913;51.910;8.374;2023-06-14T15:37:09;2.27;;;1.97;;
37001;SDS011;22913;51.910;8.374;2023-06-14T15:39:54;2.10;;;2.00;;
37001;SDS011;22913;51.910;8.374;2023-06-14T15:42:40;2.15;;;2.05;;
37001;SDS011;22913;51.910;8.374;2023-06-14T15:45:25;1.95;;;1.85;;
37001;SDS011;22913;51.910;8.374;2023-06-14T15:48:11;2.13;;;1.85;;
37001;SDS011;22913;51.910;8.374;2023-06-14T15:50:58;2.05;;;1.83;;
37001;SDS011;22913;51.910;8.374;2023-06-14T15:53:43;4.00;;;2.35;;
37001;SDS011;22913;51.910;8.374;2023-06-14T15:56:29;3.22;;;1.67;;
37001;SDS011;22913;51.910;8.374;2023-06-14T15:59:15;3.15;;;2.00;;
37001;SDS011;22913;51.910;8.374;2023-06-14T16:02:00;2.78;;;1.92;;
37001;SDS011;22913;51.910;8.374;2023-06-14T16:04:46;3.30;;;2.42;;
37001;SDS011;22913;51.910;8.374;2023-06-14T16:07:33;2.53;;;2.33;;
37001;SDS011;22913;51.910;8.374;2023-06-14T16:10:19;3.35;;;2.42;;
37001;SDS011;22913;51.910;8.374;2023-06-14T16:13:05;2.03;;;1.92;;
37001;SDS011;22913;51.910;8.374;2023-06-14T16:15:51;2.50;;;1.95;;
37001;SDS011;22913;51.910;8.374;2023-06-14T16:18:36;2.77;;;2.00;;
37001;SDS011;22913;51.910;8.374;2023-06-14T16:21:22;3.70;;;2.10;;
37001;SDS011;22913;51.910;8.374;2023-06-14T16:24:09;2.40;;;2.20;;
37001;SDS011;22913;51.910;8.374;2023-06-14T16:26:55;2.40;;;2.20;;
37001;SDS011;22913;51.910;8.374;2023-06-14T16:29:40;2.33;;;2.23;;
37001;SDS011;22913;51.910;8.374;2023-06-14T16:32:26;2.00;;;1.90;;
37001;SDS011;22913;51.910;8.374;2023-06-14T16:35:12;3.40;;;2.40;;
37001;SDS011;22913;51.910;8.374;2023-06-14T16:37:58;2.50;;;2.30;;
37001;SDS011;22913;51.910;8.374;2023-06-14T16:40:45;2.13;;;2.00;;
37001;SDS011;22913;51.910;8.374;2023-06-14T16:43:31;2.50;;;2.40;;
37001;SDS011;22913;51.910;8.374;2023-06-14T16:46:22;2.77;;;2.57;;